Time;durP1;ratioP1;P1;durP2;ratioP2;P2;SDS_P1;SDS_P2;PMS_P1;PMS_P2;Temp;Humidity;BMP_temperature;BMP_pressure;BME280_temperature;BME280_humidity;BME280_pressure;Samples;Min_cycle;Max_cycle;Signal;HPM_P1;HPM_P2
2021/12/30 00:00:38;;;;;;;0.80;0.50;;;;;;;12.98;97.21;97872.59;5058864;28;20205;-72
2021/12/30 00:03:06;;;;;;;0.30;0.30;;;;;;;12.92;97.29;97887.66;5059011;28;20200;-72
2021/12/30 00:05:33;;;;;;;0.57;0.40;;;;;;;12.71;99.48;97895.50;5058824;28;20585;-72
2021/12/30 00:08:00;;;;;;;0.50;0.50;;;;;;;12.69;99.18;97895.75;5058918;28;20198;-72
2021/12/30 00:10:26;;;;;;;0.60;0.40;;;;;;;12.67;99.72;97897.84;5058794;28;20188;-72
2021/12/30 00:12:53;;;;;;;0.50;0.50;;;;;;;12.75;98.51;97908.13;5058677;28;20214;-72
2021/12/30 00:15:21;;;;;;;0.70;0.50;;;;;;;12.80;97.18;97910.09;5058607;28;20222;-72
2021/12/30 00:17:47;;;;;;;0.40;0.40;;;;;;;12.71;98.29;97922.97;5058614;28;20601;-72
2021/12/30 00:20:15;;;;;;;1.50;0.50;;;;;;;12.89;95.88;97935.38;5058567;28;20206;-72
2021/12/30 00:22:42;;;;;;;0.77;0.50;;;;;;;13.01;94.00;97930.81;5058560;28;20288;-72
2021/12/30 00:25:10;;;;;;;2.00;0.60;;;;;;;12.96;94.16;97936.84;5058084;28;20504;-73
2021/12/30 00:27:36;;;;;;;1.27;0.60;;;;;;;13.14;91.88;97938.56;5058533;28;20192;-72
2021/12/30 00:30:05;;;;;;;1.60;0.70;;;;;;;13.09;91.41;97936.63;5058434;28;20193;-72
2021/12/30 00:32:31;;;;;;;1.40;0.63;;;;;;;13.08;91.90;97948.34;5058321;28;20211;-72
2021/12/30 00:34:58;;;;;;;1.07;0.70;;;;;;;13.00;92.23;97946.03;5057960;28;20489;-72
2021/12/30 00:37:24;;;;;;;1.83;0.77;;;;;;;13.01;92.30;97958.31;5058368;28;20195;-72
2021/12/30 00:39:51;;;;;;;1.60;0.60;;;;;;;12.95;92.27;97961.91;5058264;28;20190;-72
2021/12/30 00:42:17;;;;;;;2.33;0.60;;;;;;;12.82;93.84;97970.19;5058060;28;20513;-72
2021/12/30 00:44:43;;;;;;;1.20;0.80;;;;;;;12.76;93.66;97963.13;5058168;28;20204;-72
2021/12/30 00:47:10;;;;;;;1.80;0.60;;;;;;;13.10;90.55;97964.09;5058068;28;20229;-72
2021/12/30 00:49:36;;;;;;;1.60;0.70;;;;;;;13.02;90.73;97967.16;5057789;28;20188;-72
2021/12/30 00:52:03;;;;;;;1.63;0.70;;;;;;;13.03;90.45;97958.09;5058010;28;20193;-72
2021/12/30 00:54:30;;;;;;;1.83;0.70;;;;;;;12.82;92.36;97959.50;5057562;28;20233;-72
2021/12/30 00:56:56;;;;;;;2.50;0.60;;;;;;;12.88;91.39;97955.09;5057835;28;20227;-72
2021/12/30 00:59:23;;;;;;;1.43;0.70;;;;;;;12.92;91.31;97969.56;5057295;28;20217;-72
2021/12/30 01:01:49;;;;;;;1.57;0.70;;;;;;;12.84;91.48;97977.97;5057253;28;20213;-72
2021/12/30 01:04:15;;;;;;;1.23;0.67;;;;;;;12.90;90.57;97969.81;5057791;28;20202;-72
2021/12/30 01:06:42;;;;;;;0.90;0.60;;;;;;;12.73;92.00;97978.75;5057749;28;20233;-72
2021/12/30 01:09:08;;;;;;;2.07;0.70;;;;;;;12.81;90.79;97981.91;5057661;28;20203;-72
2021/12/30 01:11:35;;;;;;;1.07;0.80;;;;;;;12.80;90.36;97985.59;5057633;28;20202;-72
2021/12/30 01:14:05;;;;;;;2.83;0.80;;;;;;;12.71;92.23;97995.00;5057571;28;20210;-72
2021/12/30 01:16:41;;;;;;;0.80;0.53;;;;;;;12.72;91.28;98001.16;5057195;28;20223;-72
2021/12/30 01:19:22;;;;;;;1.93;0.70;;;;;;;12.69;91.98;97998.94;5057107;28;20661;-72
2021/12/30 01:21:54;;;;;;;1.23;0.60;;;;;;;12.79;90.80;98001.88;5057394;28;20190;-72
2021/12/30 01:24:22;;;;;;;1.70;0.70;;;;;;;12.79;90.94;98005.31;5057394;28;20193;-72
2021/12/30 01:26:49;;;;;;;2.03;0.73;;;;;;;12.69;91.44;98004.28;5057248;28;20255;-72
2021/12/30 01:29:15;;;;;;;1.37;0.70;;;;;;;12.50;93.29;98013.44;5057456;28;20188;-72
2021/12/30 01:31:42;;;;;;;0.60;0.60;;;;;;;12.41;94.76;98014.84;5057053;28;20500;-72
2021/12/30 01:34:08;;;;;;;0.90;0.70;;;;;;;12.55;92.41;98022.38;5057090;28;20211;-72
2021/12/30 01:36:34;;;;;;;2.57;0.60;;;;;;;12.85;90.15;98014.25;5056805;28;20222;-72
2021/12/30 01:39:01;;;;;;;1.87;0.77;;;;;;;12.69;90.91;98029.13;5056965;28;20232;-72
2021/12/30 01:41:27;;;;;;;1.80;0.80;;;;;;;12.61;91.93;98018.00;5056819;28;20251;-72
2021/12/30 01:43:54;;;;;;;1.43;0.80;;;;;;;12.66;91.11;98026.91;5056684;28;20197;-72
2021/12/30 01:46:21;;;;;;;0.87;0.70;;;;;;;12.61;91.74;98032.13;5056641;28;20309;-72
2021/12/30 01:48:48;;;;;;;1.10;0.70;;;;;;;12.53;92.07;98037.78;5056937;28;20191;-72
2021/12/30 01:51:14;;;;;;;1.47;0.70;;;;;;;12.65;91.33;98051.13;5056922;28;20195;-72
2021/12/30 01:53:41;;;;;;;1.27;0.80;;;;;;;12.50;91.97;98048.94;5056763;28;20215;-72
2021/12/30 01:56:08;;;;;;;1.67;0.60;;;;;;;12.52;91.68;98051.38;5056783;28;20226;-72
2021/12/30 01:58:35;;;;;;;1.97;0.90;;;;;;;12.71;89.77;98060.88;5056810;28;20199;-72
2021/12/30 02:01:03;;;;;;;1.20;0.90;;;;;;;12.51;91.48;98071.88;5056712;28;20231;-72
2021/12/30 02:03:29;;;;;;;2.00;0.80;;;;;;;12.48;91.97;98075.00;5056685;28;20510;-72
2021/12/30 02:05:56;;;;;;;1.87;0.70;;;;;;;12.39;92.02;98070.25;5056276;28;20234;-72
2021/12/30 02:08:22;;;;;;;1.33;0.77;;;;;;;12.35;91.99;98082.41;5056664;28;20191;-72
2021/12/30 02:10:51;;;;;;;0.87;0.77;;;;;;;12.23;93.24;98093.06;5056933;28;20194;-73
2021/12/30 02:13:18;;;;;;;2.10;0.90;;;;;;;12.36;91.93;98095.53;5056723;28;20220;-73
2021/12/30 02:15:45;;;;;;;2.17;0.87;;;;;;;12.50;90.31;98101.44;5056479;28;20221;-73
2021/12/30 02:18:11;;;;;;;3.90;1.10;;;;;;;12.40;91.56;98104.69;5056181;28;20198;-73
2021/12/30 02:20:53;;;;;;;1.80;1.00;;;;;;;12.47;90.29;98102.72;5056419;28;20211;-72
2021/12/30 02:23:21;;;;;;;1.60;0.93;;;;;;;12.56;89.56;98101.34;5056101;28;20612;-72
2021/12/30 02:25:48;;;;;;;1.07;0.73;;;;;;;12.57;89.36;98107.50;5056451;28;20222;-72
2021/12/30 02:28:16;;;;;;;2.40;0.70;;;;;;;12.55;89.15;98110.41;5056363;28;20226;-72
2021/12/30 02:30:44;;;;;;;1.73;0.90;;;;;;;12.53;89.49;98107.13;5056340;28;20198;-72
2021/12/30 02:33:11;;;;;;;1.97;1.10;;;;;;;12.60;88.92;98107.84;5056243;28;20223;-73
2021/12/30 02:35:38;;;;;;;2.63;1.10;;;;;;;12.71;88.12;98120.38;5055937;28;20234;-72
2021/12/30 02:38:05;;;;;;;1.53;0.70;;;;;;;12.60;88.92;98123.84;5056307;28;20199;-72
2021/12/30 02:40:36;;;;;;;1.77;0.80;;;;;;;12.63;89.22;98115.41;5056290;28;20199;-72
2021/12/30 02:43:06;;;;;;;2.27;0.97;;;;;;;12.69;89.06;98121.66;5055894;28;20631;-73
2021/12/30 02:45:33;;;;;;;1.37;0.90;;;;;;;12.61;89.66;98120.13;5056177;28;20563;-73
2021/12/30 02:47:59;;;;;;;1.37;0.60;;;;;;;12.58;89.87;98131.28;5056211;28;20478;-72
2021/12/30 02:50:26;;;;;;;1.40;0.80;;;;;;;12.57;89.79;98129.63;5056204;28;20186;-72
2021/12/30 02:52:52;;;;;;;2.53;0.83;;;;;;;12.48;90.56;98130.22;5056090;28;20197;-72
2021/12/30 02:55:18;;;;;;;3.07;0.77;;;;;;;12.46;90.82;98130.44;5056051;28;20238;-72
2021/12/30 02:57:45;;;;;;;1.80;0.70;;;;;;;12.51;90.37;98143.06;5056135;28;20277;-73
2021/12/30 03:00:11;;;;;;;2.03;0.60;;;;;;;12.44;90.85;98145.84;5056081;28;20206;-72
2021/12/30 03:02:39;;;;;;;1.67;0.80;;;;;;;12.57;91.83;98139.50;5056041;28;20197;-72
2021/12/30 03:05:08;;;;;;;1.20;0.70;;;;;;;12.53;93.62;98147.13;5055998;28;20186;-72
2021/12/30 03:07:35;;;;;;;1.40;0.70;;;;;;;12.45;94.45;98142.16;5056019;28;20198;-72
2021/12/30 03:10:04;;;;;;;1.43;0.53;;;;;;;12.33;95.83;98137.81;5055972;28;20196;-72
2021/12/30 03:12:31;;;;;;;2.50;0.87;;;;;;;12.25;96.94;98144.28;5056145;28;20193;-72
2021/12/30 03:14:59;;;;;;;0.80;0.60;;;;;;;12.42;95.25;98150.59;5055807;28;20216;-73
2021/12/30 03:17:26;;;;;;;1.87;0.60;;;;;;;12.51;95.14;98148.41;5055619;28;20297;-72
2021/12/30 03:19:57;;;;;;;2.73;0.80;;;;;;;12.53;95.04;98155.13;5055577;28;20606;-72
2021/12/30 03:22:24;;;;;;;2.73;0.70;;;;;;;12.54;95.21;98156.78;5055913;28;20247;-72
2021/12/30 03:24:51;;;;;;;2.07;0.63;;;;;;;12.37;96.84;98157.63;5059314;28;20191;-73
2021/12/30 03:27:18;;;;;;;1.17;0.50;;;;;;;12.31;97.27;98161.22;5059593;28;20198;-72
2021/12/30 03:29:44;;;;;;;1.90;0.70;;;;;;;12.38;96.65;98165.41;5059810;28;20196;-72
2021/12/30 03:32:10;;;;;;;0.63;0.60;;;;;;;12.35;97.55;98167.72;5059438;28;20201;-72
2021/12/30 03:34:37;;;;;;;0.50;0.50;;;;;;;12.53;95.75;98155.13;5059374;28;20244;-73
2021/12/30 03:37:03;;;;;;;0.50;0.50;;;;;;;12.71;94.35;98171.06;5059353;28;20220;-72
2021/12/30 03:39:30;;;;;;;0.80;0.60;;;;;;;12.65;95.70;98173.81;5059437;28;20194;-73
2021/12/30 03:41:56;;;;;;;0.50;0.40;;;;;;;12.80;93.88;98180.34;5059052;28;20608;-72
2021/12/30 03:44:23;;;;;;;0.70;0.53;;;;;;;12.75;94.40;98180.22;5059829;28;20200;-72
2021/12/30 03:46:49;;;;;;;0.83;0.50;;;;;;;12.77;94.32;98180.00;5058855;28;20647;-73
2021/12/30 03:49:15;;;;;;;1.07;0.43;;;;;;;12.81;94.38;98190.00;5059265;28;20196;-72
2021/12/30 03:51:42;;;;;;;1.90;0.60;;;;;;;12.78;94.58;98187.78;5059172;28;20200;-73
2021/12/30 03:54:09;;;;;;;1.00;0.57;;;;;;;12.73;94.72;98190.31;5059056;28;20216;-72
2021/12/30 03:56:36;;;;;;;1.10;0.50;;;;;;;12.54;96.83;98193.28;5059524;28;20274;-72
2021/12/30 03:59:04;;;;;;;0.83;0.50;;;;;;;12.68;95.30;98197.38;5058680;28;20535;-73
2021/12/30 04:01:30;;;;;;;0.67;0.50;;;;;;;12.59;96.41;98196.09;5058991;28;20199;-72
2021/12/30 04:03:57;;;;;;;0.77;0.60;;;;;;;12.58;96.65;98202.47;5058891;28;20207;-73
2021/12/30 04:06:24;;;;;;;1.90;0.50;;;;;;;12.58;96.89;98199.78;5058482;28;20656;-72
2021/12/30 04:08:50;;;;;;;1.07;0.50;;;;;;;12.52;97.43;98204.19;5058543;28;20619;-72
2021/12/30 04:11:17;;;;;;;0.77;0.50;;;;;;;12.60;96.99;98203.84;5058798;28;20199;-72
2021/12/30 04:13:43;;;;;;;1.30;0.47;;;;;;;12.43;98.79;98213.53;5058373;28;20536;-72
2021/12/30 04:16:10;;;;;;;0.50;0.50;;;;;;;12.52;98.15;98214.84;5058857;28;20228;-72
2021/12/30 04:18:36;;;;;;;0.50;0.50;;;;;;;12.57;97.90;98203.50;5058222;28;20608;-73
2021/12/30 04:21:03;;;;;;;0.57;0.40;;;;;;;12.61;98.24;98218.81;5058440;28;20214;-72
2021/12/30 04:23:30;;;;;;;0.40;0.40;;;;;;;12.48;99.60;98218.22;5058444;28;20212;-72
2021/12/30 04:25:56;;;;;;;0.83;0.50;;;;;;;12.32;100.00;98216.16;5058468;28;20232;-73
2021/12/30 04:28:23;;;;;;;0.70;0.60;;;;;;;12.23;100.00;98223.66;5058399;28;20199;-73
2021/12/30 04:30:49;;;;;;;1.47;0.50;;;;;;;12.21;100.00;98223.06;5058410;28;20191;-73
2021/12/30 04:33:16;;;;;;;1.10;0.60;;;;;;;12.31;100.00;98219.88;5058221;28;20215;-72
2021/12/30 04:35:42;;;;;;;1.17;0.53;;;;;;;12.26;100.00;98223.19;5056856;28;20225;-72
2021/12/30 04:38:08;;;;;;;1.50;0.50;;;;;;;12.13;100.00;98233.22;5058129;28;20199;-72
2021/12/30 04:40:35;;;;;;;1.67;0.50;;;;;;;12.21;100.00;98230.25;5058136;28;20192;-72
2021/12/30 04:43:01;;;;;;;1.53;0.40;;;;;;;12.13;100.00;98239.38;5058373;28;20211;-72
2021/12/30 04:45:29;;;;;;;0.47;0.40;;;;;;;12.10;100.00;98254.97;5057517;28;20221;-73
2021/12/30 04:47:55;;;;;;;2.30;0.60;;;;;;;12.05;100.00;98250.34;5058031;28;20235;-72
2021/12/30 04:50:22;;;;;;;0.40;0.40;;;;;;;12.13;100.00;98251.88;5058001;28;20197;-73
2021/12/30 04:52:48;;;;;;;2.10;0.60;;;;;;;12.11;100.00;98260.09;5057909;28;20514;-72
2021/12/30 04:55:14;;;;;;;0.80;0.60;;;;;;;12.07;100.00;98250.13;5057938;28;20223;-73
2021/12/30 04:57:41;;;;;;;0.60;0.50;;;;;;;12.04;100.00;98250.56;5057799;28;20203;-73
2021/12/30 05:00:11;;;;;;;1.43;0.50;;;;;;;12.05;100.00;98244.19;5057552;28;20195;-72
2021/12/30 05:02:57;;;;;;;0.90;0.60;;;;;;;12.01;100.00;98251.00;5057659;28;20195;-73
2021/12/30 05:05:24;;;;;;;0.97;0.50;;;;;;;12.08;100.00;98257.88;5057373;28;20230;-72
2021/12/30 05:07:50;;;;;;;1.10;0.43;;;;;;;12.09;100.00;98251.53;5057498;28;20192;-73
2021/12/30 05:10:17;;;;;;;0.40;0.40;;;;;;;12.13;100.00;98260.72;5057656;28;20205;-71
2021/12/30 05:12:43;;;;;;;0.70;0.50;;;;;;;12.18;100.00;98252.84;5057521;28;20197;-71
2021/12/30 05:15:10;;;;;;;0.73;0.33;;;;;;;12.20;100.00;98255.31;5057034;28;20622;-70
2021/12/30 05:17:36;;;;;;;0.83;0.50;;;;;;;12.18;100.00;98247.53;5057344;28;20195;-71
2021/12/30 05:20:03;;;;;;;0.73;0.47;;;;;;;12.25;100.00;98253.56;5057395;28;20202;-71
2021/12/30 05:22:30;;;;;;;0.57;0.53;;;;;;;12.21;100.00;98257.72;5056869;28;20598;-71
2021/12/30 05:24:56;;;;;;;0.43;0.40;;;;;;;12.23;100.00;98254.81;5057056;28;20191;-71
2021/12/30 05:27:23;;;;;;;1.13;0.30;;;;;;;12.10;100.00;98261.13;5057147;28;20202;-71
2021/12/30 05:29:49;;;;;;;0.40;0.30;;;;;;;12.07;100.00;98274.09;5056805;28;20564;-71
2021/12/30 05:32:15;;;;;;;0.97;0.30;;;;;;;12.08;100.00;98267.72;5056971;28;20200;-71
2021/12/30 05:34:42;;;;;;;0.30;0.30;;;;;;;12.04;100.00;98271.88;5056746;28;20226;-71
2021/12/30 05:37:08;;;;;;;0.40;0.40;;;;;;;12.05;100.00;98282.31;5056670;28;20540;-71
2021/12/30 05:39:39;;;;;;;0.40;0.40;;;;;;;12.05;100.00;98274.31;5056224;28;20470;-71
2021/12/30 05:42:06;;;;;;;1.67;0.40;;;;;;;12.00;100.00;98281.34;5056274;28;20493;-71
2021/12/30 05:44:32;;;;;;;1.07;0.30;;;;;;;11.91;100.00;98282.69;5056520;28;20221;-71
2021/12/30 05:46:58;;;;;;;0.53;0.43;;;;;;;12.00;100.00;98279.50;5056042;28;20227;-71
2021/12/30 05:49:25;;;;;;;0.70;0.30;;;;;;;11.90;100.00;98281.88;5056648;28;20209;-71
2021/12/30 05:51:51;;;;;;;0.73;0.40;;;;;;;11.90;100.00;98281.88;5056425;28;20211;-70
2021/12/30 05:54:17;;;;;;;1.63;0.43;;;;;;;12.05;100.00;98294.81;5056438;28;20226;-71
2021/12/30 05:56:44;;;;;;;0.40;0.40;;;;;;;12.10;100.00;98292.28;5056383;28;20231;-71
2021/12/30 05:59:10;;;;;;;1.37;0.40;;;;;;;12.16;100.00;98292.22;5056465;28;20228;-71
2021/12/30 06:01:37;;;;;;;0.40;0.30;;;;;;;12.15;100.00;98293.25;5056170;28;20187;-71
2021/12/30 06:04:03;;;;;;;0.40;0.40;;;;;;;12.08;100.00;98300.50;5055950;28;20615;-70
2021/12/30 06:06:29;;;;;;;0.27;0.27;;;;;;;12.20;100.00;98296.06;5056221;28;20227;-70
2021/12/30 06:08:56;;;;;;;0.27;0.27;;;;;;;12.35;100.00;98301.81;5056212;28;20511;-70
2021/12/30 06:11:22;;;;;;;0.57;0.30;;;;;;;12.19;100.00;98301.63;5056194;28;20279;-71
2021/12/30 06:13:49;;;;;;;0.30;0.30;;;;;;;12.19;100.00;98307.78;5056022;28;20195;-70
2021/12/30 06:16:15;;;;;;;1.30;0.33;;;;;;;12.15;100.00;98311.91;5056039;28;20234;-71
2021/12/30 06:18:41;;;;;;;442.00;35.23;;;;;;;12.17;100.00;98317.84;5056168;28;20218;-71
2021/12/30 06:21:08;;;;;;;3.13;0.30;;;;;;;12.15;100.00;98319.91;5056175;28;20193;-71
2021/12/30 06:23:34;;;;;;;0.37;0.30;;;;;;;12.12;100.00;98311.56;5055633;28;20614;-71
2021/12/30 06:26:00;;;;;;;0.70;0.30;;;;;;;12.11;100.00;98329.38;5055806;28;20241;-70
2021/12/30 06:28:27;;;;;;;0.30;0.30;;;;;;;12.04;100.00;98314.50;5056158;28;20622;-71
2021/12/30 06:30:53;;;;;;;0.30;0.30;;;;;;;11.99;100.00;98317.84;5055934;28;20581;-70
2021/12/30 06:33:19;;;;;;;0.33;0.30;;;;;;;12.02;100.00;98319.25;5055762;28;20212;-71
2021/12/30 06:35:46;;;;;;;0.40;0.30;;;;;;;12.02;100.00;98314.72;5055883;28;20622;-71
2021/12/30 06:38:13;;;;;;;2.00;0.30;;;;;;;12.00;100.00;98316.81;5056094;28;20495;-71
2021/12/30 06:40:39;;;;;;;0.30;0.30;;;;;;;12.02;100.00;98327.25;5056060;28;20211;-71
2021/12/30 06:43:05;;;;;;;0.30;0.30;;;;;;;12.07;100.00;98327.41;5055560;28;20217;-71
2021/12/30 06:45:32;;;;;;;0.73;0.20;;;;;;;12.08;100.00;98332.50;5055624;28;20221;-72
2021/12/30 06:47:59;;;;;;;0.77;0.30;;;;;;;12.12;100.00;98339.00;5056110;28;20204;-70
2021/12/30 06:50:31;;;;;;;1.10;0.30;;;;;;;12.14;100.00;98341.47;5055493;28;20208;-71
2021/12/30 06:52:57;;;;;;;0.30;0.30;;;;;;;12.06;100.00;98342.56;5055853;28;20277;-71
2021/12/30 06:55:23;;;;;;;0.90;0.40;;;;;;;12.09;100.00;98339.47;5055476;28;20230;-71
2021/12/30 06:57:50;;;;;;;1.03;0.30;;;;;;;12.12;100.00;98351.53;5056339;28;20475;-72
2021/12/30 07:00:16;;;;;;;1.00;0.67;;;;;;;12.02;100.00;98349.38;5060016;28;20211;-71
2021/12/30 07:02:44;;;;;;;0.30;0.30;;;;;;;12.02;100.00;98345.91;5059829;28;20199;-71
2021/12/30 07:05:12;;;;;;;0.37;0.37;;;;;;;12.04;100.00;98355.31;5059845;28;20227;-71
2021/12/30 07:07:38;;;;;;;0.60;0.30;;;;;;;12.02;100.00;98356.56;5059408;28;20203;-71
2021/12/30 07:10:06;;;;;;;0.33;0.33;;;;;;;12.00;100.00;98370.09;5060090;28;20194;-71
2021/12/30 07:12:32;;;;;;;0.73;0.50;;;;;;;12.03;100.00;98366.19;5059557;28;20198;-71
2021/12/30 07:14:58;;;;;;;0.33;0.33;;;;;;;12.06;100.00;98363.06;5059127;28;20221;-71
2021/12/30 07:17:26;;;;;;;0.47;0.40;;;;;;;11.96;100.00;98366.25;5059683;28;20508;-71
2021/12/30 07:19:52;;;;;;;0.90;0.50;;;;;;;11.95;100.00;98374.47;5059690;28;20241;-71
2021/12/30 07:22:19;;;;;;;0.33;0.33;;;;;;;11.93;100.00;98377.34;5059306;28;20214;-71
2021/12/30 07:24:45;;;;;;;0.67;0.40;;;;;;;12.00;100.00;98383.44;5059274;28;20203;-71
2021/12/30 07:27:11;;;;;;;0.53;0.40;;;;;;;11.91;100.00;98384.75;5059382;28;20223;-71
2021/12/30 07:29:38;;;;;;;0.67;0.50;;;;;;;11.99;100.00;98394.31;5059121;28;20207;-71
2021/12/30 07:32:04;;;;;;;0.60;0.50;;;;;;;11.98;100.00;98390.81;5059084;28;20189;-71
2021/12/30 07:34:30;;;;;;;0.50;0.50;;;;;;;11.95;100.00;98390.44;5059192;28;20233;-71
2021/12/30 07:36:57;;;;;;;0.50;0.50;;;;;;;12.03;100.00;98396.28;5059368;28;20217;-71
2021/12/30 07:39:23;;;;;;;0.77;0.50;;;;;;;12.11;100.00;98393.34;5059098;28;20198;-71
2021/12/30 07:41:50;;;;;;;0.50;0.40;;;;;;;12.11;100.00;98390.69;5058426;28;20215;-71
2021/12/30 07:44:16;;;;;;;0.93;0.30;;;;;;;12.19;100.00;98398.41;5059175;28;20202;-71
2021/12/30 07:46:42;;;;;;;1.07;0.30;;;;;;;12.24;100.00;98403.88;5058994;28;20220;-71
2021/12/30 07:49:09;;;;;;;0.73;0.40;;;;;;;12.27;100.00;98403.44;5058975;28;20194;-72
2021/12/30 07:51:35;;;;;;;0.30;0.30;;;;;;;12.31;100.00;98409.97;5058857;28;20206;-72
2021/12/30 07:54:01;;;;;;;0.53;0.40;;;;;;;12.28;100.00;98423.75;5058930;28;20199;-71
2021/12/30 07:56:28;;;;;;;0.50;0.30;;;;;;;12.23;100.00;98417.44;5058724;28;20229;-72
2021/12/30 07:58:54;;;;;;;0.30;0.30;;;;;;;12.31;100.00;98417.97;5058753;28;20208;-71
2021/12/30 08:01:20;;;;;;;0.67;0.30;;;;;;;12.40;100.00;98416.66;5059114;28;20207;-72
2021/12/30 08:03:47;;;;;;;1.40;0.27;;;;;;;12.52;100.00;98419.41;5058772;28;20516;-71
2021/12/30 08:06:13;;;;;;;0.37;0.30;;;;;;;12.53;100.00;98421.00;5058480;28;20224;-71
2021/12/30 08:08:40;;;;;;;0.20;0.20;;;;;;;12.50;100.00;98421.44;5058117;28;20209;-71
2021/12/30 08:11:06;;;;;;;0.30;0.30;;;;;;;12.53;100.00;98421.81;5058554;28;20268;-71
2021/12/30 08:13:33;;;;;;;0.30;0.30;;;;;;;12.58;100.00;98431.84;5058491;28;20201;-71
2021/12/30 08:15:59;;;;;;;0.40;0.40;;;;;;;12.51;100.00;98426.56;5058499;28;20311;-71
2021/12/30 08:18:26;;;;;;;0.80;0.40;;;;;;;12.45;100.00;98430.13;5058726;28;20492;-71
2021/12/30 08:20:52;;;;;;;0.40;0.40;;;;;;;12.44;100.00;98417.81;5058161;28;20493;-71
2021/12/30 08:23:19;;;;;;;0.53;0.30;;;;;;;12.49;100.00;98414.50;5058469;28;20191;-71
2021/12/30 08:25:49;;;;;;;1.20;0.30;;;;;;;12.53;100.00;98427.16;5058548;28;20218;-71
2021/12/30 08:28:17;;;;;;;0.40;0.30;;;;;;;12.49;100.00;98427.81;5058205;28;20291;-71
2021/12/30 08:30:43;;;;;;;0.40;0.40;;;;;;;12.47;100.00;98429.88;5058197;28;20592;-71
2021/12/30 08:33:10;;;;;;;1.80;0.40;;;;;;;12.46;100.00;98430.94;5058108;28;20203;-71
2021/12/30 08:35:36;;;;;;;0.40;0.40;;;;;;;12.53;100.00;98431.69;5057823;28;20659;-71
2021/12/30 08:38:03;;;;;;;1.13;0.50;;;;;;;12.49;100.00;98426.00;5058284;28;20188;-71
2021/12/30 08:40:30;;;;;;;0.40;0.37;;;;;;;12.57;100.00;98435.53;5057963;28;20619;-71
2021/12/30 08:42:56;;;;;;;0.40;0.40;;;;;;;12.57;100.00;98431.00;5058016;28;20211;-71
2021/12/30 08:45:23;;;;;;;0.40;0.40;;;;;;;12.55;100.00;98430.44;5057854;28;20231;-71
2021/12/30 08:47:49;;;;;;;0.43;0.37;;;;;;;12.53;100.00;98426.34;5058513;28;20227;-71
2021/12/30 08:50:17;;;;;;;1.00;0.50;;;;;;;12.52;100.00;98436.19;5057587;28;20476;-71
2021/12/30 08:52:45;;;;;;;0.37;0.37;;;;;;;12.50;100.00;98432.94;5057943;28;20200;-72
2021/12/30 08:55:13;;;;;;;0.50;0.30;;;;;;;12.48;100.00;98436.88;5057523;28;20230;-71
2021/12/30 08:57:41;;;;;;;0.73;0.60;;;;;;;12.48;100.00;98439.53;5057686;28;20278;-71
2021/12/30 09:00:15;;;;;;;0.50;0.50;;;;;;;12.55;100.00;98438.41;5057375;28;20243;-71
2021/12/30 09:02:42;;;;;;;0.60;0.60;;;;;;;12.52;100.00;98444.19;5057803;28;20474;-71
2021/12/30 09:05:09;;;;;;;0.50;0.50;;;;;;;12.50;100.00;98448.13;5057568;28;20191;-71
2021/12/30 09:07:35;;;;;;;1.77;0.70;;;;;;;12.57;100.00;98447.00;5057637;28;20193;-71
2021/12/30 09:10:02;;;;;;;1.07;0.50;;;;;;;12.57;100.00;98448.88;5057538;28;20192;-72
2021/12/30 09:12:28;;;;;;;0.43;0.40;;;;;;;12.72;100.00;98441.31;5057734;28;20196;-71
2021/12/30 09:14:54;;;;;;;0.60;0.60;;;;;;;12.81;100.00;98451.47;5056971;28;20627;-71
2021/12/30 09:17:21;;;;;;;0.43;0.40;;;;;;;12.94;100.00;98451.28;5057526;28;20200;-71
2021/12/30 09:19:47;;;;;;;0.40;0.40;;;;;;;13.08;100.00;98443.97;5057163;28;20287;-71
2021/12/30 09:22:13;;;;;;;0.30;0.30;;;;;;;13.27;100.00;98442.88;5056498;28;20577;-71
2021/12/30 09:24:40;;;;;;;0.40;0.40;;;;;;;13.27;100.00;98441.03;5057333;28;20208;-71
2021/12/30 09:27:06;;;;;;;0.47;0.47;;;;;;;13.35;100.00;98435.41;5056654;28;20715;-71
2021/12/30 09:29:33;;;;;;;1.20;0.57;;;;;;;13.36;100.00;98433.53;5056618;28;20204;-71
2021/12/30 09:31:59;;;;;;;0.60;0.60;;;;;;;13.42;100.00;98420.06;5057066;28;20194;-71
2021/12/30 09:34:26;;;;;;;0.60;0.60;;;;;;;13.44;100.00;98434.03;5056841;28;20593;-71
2021/12/30 09:36:52;;;;;;;0.73;0.50;;;;;;;13.44;100.00;98431.38;5056578;28;20765;-71
2021/12/30 09:39:19;;;;;;;0.47;0.47;;;;;;;13.48;100.00;98439.72;5056926;28;20209;-71
2021/12/30 09:41:47;;;;;;;1.13;0.90;;;;;;;13.45;100.00;98449.00;5056846;28;20205;-71
2021/12/30 09:44:18;;;;;;;0.40;0.33;;;;;;;13.42;100.00;98454.78;5056560;28;20206;-71
2021/12/30 09:46:46;;;;;;;0.40;0.40;;;;;;;13.53;100.00;98454.03;5056886;28;20240;-71
2021/12/30 09:49:18;;;;;;;0.53;0.30;;;;;;;13.56;100.00;98455.44;5056830;28;20204;-71
2021/12/30 09:51:45;;;;;;;0.50;0.50;;;;;;;13.54;100.00;98457.50;5056834;28;20211;-72
2021/12/30 09:54:12;;;;;;;0.50;0.47;;;;;;;13.59;100.00;98455.78;5056745;28;20259;-72
2021/12/30 09:56:40;;;;;;;0.53;0.50;;;;;;;13.60;100.00;98459.25;5056646;28;20239;-71
2021/12/30 09:59:07;;;;;;;0.57;0.40;;;;;;;13.68;100.00;98464.28;5056845;28;20197;-70
2021/12/30 10:01:36;;;;;;;0.60;0.40;;;;;;;13.72;100.00;98454.75;5056763;28;20251;-71
2021/12/30 10:04:04;;;;;;;1.80;0.40;;;;;;;13.73;100.00;98449.19;5056931;28;20197;-71
2021/12/30 10:06:31;;;;;;;0.53;0.40;;;;;;;13.71;100.00;98464.63;5056617;28;20226;-72
2021/12/30 10:09:00;;;;;;;1.63;0.53;;;;;;;13.76;100.00;98461.28;5056238;28;20497;-71
2021/12/30 10:11:27;;;;;;;0.87;0.43;;;;;;;13.89;100.00;98472.56;5056542;28;20201;-71
2021/12/30 10:13:59;;;;;;;0.30;0.30;;;;;;;13.83;100.00;98462.81;5056414;28;20186;-72
2021/12/30 10:16:26;;;;;;;0.40;0.40;;;;;;;13.86;99.28;98466.88;5055868;28;20584;-71
2021/12/30 10:19:00;;;;;;;0.50;0.50;;;;;;;13.93;99.06;98462.25;5056464;28;20197;-71
2021/12/30 10:21:32;;;;;;;0.40;0.40;;;;;;;13.84;99.59;98475.13;5056363;28;20189;-71
2021/12/30 10:24:00;;;;;;;0.60;0.40;;;;;;;13.85;99.89;98482.13;5056153;28;20213;-71
2021/12/30 10:26:28;;;;;;;0.47;0.40;;;;;;;13.78;99.97;98476.03;5056298;28;20222;-71
2021/12/30 10:29:04;;;;;;;0.50;0.50;;;;;;;13.85;99.85;98476.78;5056230;28;20189;-71
2021/12/30 10:31:33;;;;;;;0.63;0.50;;;;;;;13.82;100.00;98481.75;5055989;28;20619;-71
2021/12/30 10:34:09;;;;;;;0.73;0.40;;;;;;;13.94;98.83;98486.09;5056972;28;20186;-71
2021/12/30 10:36:47;;;;;;;0.40;0.40;;;;;;;14.11;97.56;98492.38;5056016;28;20303;-71
2021/12/30 10:39:19;;;;;;;1.23;0.40;;;;;;;14.30;96.60;98495.81;5055904;28;20586;-71
2021/12/30 10:41:48;;;;;;;0.40;0.40;;;;;;;14.40;96.03;98490.69;5055353;28;20216;-71
2021/12/30 10:44:15;;;;;;;0.30;0.30;;;;;;;14.46;95.18;98489.75;5055539;28;20209;-72
2021/12/30 10:46:41;;;;;;;1.17;0.40;;;;;;;14.47;95.91;98489.53;5055893;28;20304;-70
2021/12/30 10:49:12;;;;;;;0.40;0.40;;;;;;;14.57;95.42;98500.44;5055774;28;20199;-71
2021/12/30 10:51:45;;;;;;;0.57;0.57;;;;;;;14.60;94.44;98505.34;5056551;28;20189;-71
2021/12/30 10:54:28;;;;;;;1.80;0.47;;;;;;;14.65;94.75;98501.97;5055749;28;20285;-70
2021/12/30 10:57:06;;;;;;;0.43;0.43;;;;;;;14.67;95.23;98500.69;5054853;28;20228;-70
2021/12/30 10:59:45;;;;;;;0.63;0.50;;;;;;;14.82;96.28;98489.50;5054946;28;20189;-71
2021/12/30 11:02:16;;;;;;;1.07;0.50;;;;;;;14.93;93.67;98491.34;5055937;28;20185;-71
2021/12/30 11:04:44;;;;;;;1.50;0.43;;;;;;;14.87;95.71;98490.41;5055767;28;20197;-71
2021/12/30 11:07:13;;;;;;;1.53;0.50;;;;;;;14.95;93.81;98484.72;5055507;28;20220;-72
2021/12/30 11:10:07;;;;;;;1.03;0.40;;;;;;;15.01;91.93;98491.78;5055709;28;20197;-71
2021/12/30 11:12:38;;;;;;;0.40;0.40;;;;;;;15.01;92.68;98486.44;5055274;28;20201;-71
2021/12/30 11:15:22;;;;;;;0.77;0.40;;;;;;;15.13;92.21;98487.22;5055317;28;20289;-72
2021/12/30 11:17:49;;;;;;;0.63;0.43;;;;;;;15.13;91.52;98481.03;5072082;28;20607;-71
2021/12/30 11:20:22;;;;;;;0.53;0.53;;;;;;;15.15;91.55;98484.31;5075100;28;20307;-71
2021/12/30 11:22:49;;;;;;;0.40;0.40;;;;;;;15.20;91.29;98485.22;5055721;28;20228;-71
2021/12/30 11:25:17;;;;;;;0.50;0.50;;;;;;;15.24;90.17;98483.69;5055562;28;20217;-73
2021/12/30 11:27:44;;;;;;;0.40;0.40;;;;;;;15.19;90.33;98486.25;5055773;28;20225;-71
2021/12/30 11:30:16;;;;;;;0.40;0.40;;;;;;;15.30;89.36;98490.78;5056139;28;20196;-71